sensor_id;sensor_type;location;lat;lon;timestamp;P1;durP1;ratioP1;P2;durP2;ratioP2
67378;SDS011;54262;44.642;-0.974;2023-11-21T00:01:35;3.63;;;1.95;;
67378;SDS011;54262;44.642;-0.974;2023-11-21T00:04:02;3.42;;;2.05;;
67378;SDS011;54262;44.642;-0.974;2023-11-21T00:06:28;3.95;;;1.90;;
67378;SDS011;54262;44.642;-0.974;2023-11-21T00:08:55;3.70;;;2.03;;
67378;SDS011;54262;44.642;-0.974;2023-11-21T00:11:21;3.28;;;1.90;;
67378;SDS011;54262;44.642;-0.974;2023-11-21T00:13:49;7.55;;;2.53;;
67378;SDS011;54262;44.642;-0.974;2023-11-21T00:16:15;5.05;;;1.83;;
67378;SDS011;54262;44.642;-0.974;2023-11-21T00:18:43;8.50;;;2.15;;
67378;SDS011;54262;44.642;-0.974;2023-11-21T00:21:08;7.25;;;1.98;;
67378;SDS011;54262;44.642;-0.974;2023-11-21T00:23:34;8.88;;;2.20;;
67378;SDS011;54262;44.642;-0.974;2023-11-21T00:26:00;7.15;;;2.10;;
67378;SDS011;54262;44.642;-0.974;2023-11-21T00:28:26;8.13;;;1.88;;
67378;SDS011;54262;44.642;-0.974;2023-11-21T00:30:51;2.88;;;1.35;;
67378;SDS011;54262;44.642;-0.974;2023-11-21T00:33:17;4.75;;;2.00;;
67378;SDS011;54262;44.642;-0.974;2023-11-21T00:35:43;11.10;;;2.70;;
67378;SDS011;54262;44.642;-0.974;2023-11-21T00:38:09;4.95;;;1.63;;
67378;SDS011;54262;44.642;-0.974;2023-11-21T00:40:34;7.70;;;2.03;;
67378;SDS011;54262;44.642;-0.974;2023-11-21T00:43:00;8.02;;;2.42;;
67378;SDS011;54262;44.642;-0.974;2023-11-21T00:45:26;4.43;;;2.00;;
67378;SDS011;54262;44.642;-0.974;2023-11-21T00:47:51;7.70;;;2.45;;
67378;SDS011;54262;44.642;-0.974;2023-11-21T00:50:17;7.43;;;1.92;;
67378;SDS011;54262;44.642;-0.974;2023-11-21T00:52:43;7.57;;;2.55;;
67378;SDS011;54262;44.642;-0.974;2023-11-21T00:55:08;6.25;;;1.88;;
67378;SDS011;54262;44.642;-0.974;2023-11-21T00:57:35;4.82;;;2.08;;
67378;SDS011;54262;44.642;-0.974;2023-11-21T01:00:02;7.50;;;2.15;;
67378;SDS011;54262;44.642;-0.974;2023-11-21T01:02:32;3.90;;;1.60;;
67378;SDS011;54262;44.642;-0.974;2023-11-21T01:05:00;4.50;;;1.55;;
67378;SDS011;54262;44.642;-0.974;2023-11-21T01:07:26;3.30;;;1.65;;
67378;SDS011;54262;44.642;-0.974;2023-11-21T01:09:52;8.15;;;1.85;;
67378;SDS011;54262;44.642;-0.974;2023-11-21T01:12:18;4.43;;;1.70;;
67378;SDS011;54262;44.642;-0.974;2023-11-21T01:14:46;7.38;;;1.65;;
67378;SDS011;54262;44.642;-0.974;2023-11-21T01:17:12;4.90;;;1.65;;
67378;SDS011;54262;44.642;-0.974;2023-11-21T01:19:40;7.22;;;2.08;;
67378;SDS011;54262;44.642;-0.974;2023-11-21T01:22:05;4.82;;;1.63;;
67378;SDS011;54262;44.642;-0.974;2023-11-21T01:24:31;5.38;;;1.80;;
67378;SDS011;54262;44.642;-0.974;2023-11-21T01:26:57;4.85;;;2.13;;
67378;SDS011;54262;44.642;-0.974;2023-11-21T01:29:22;6.25;;;1.98;;
67378;SDS011;54262;44.642;-0.974;2023-11-21T01:31:48;2.72;;;1.42;;
67378;SDS011;54262;44.642;-0.974;2023-11-21T01:34:13;4.38;;;1.83;;
67378;SDS011;54262;44.642;-0.974;2023-11-21T01:36:39;6.90;;;2.22;;
67378;SDS011;54262;44.642;-0.974;2023-11-21T01:39:05;5.82;;;1.50;;
67378;SDS011;54262;44.642;-0.974;2023-11-21T01:41:33;3.45;;;1.70;;
67378;SDS011;54262;44.642;-0.974;2023-11-21T01:44:00;4.85;;;1.58;;
67378;SDS011;54262;44.642;-0.974;2023-11-21T01:46:25;3.35;;;1.73;;
67378;SDS011;54262;44.642;-0.974;2023-11-21T01:48:51;3.58;;;1.38;;
67378;SDS011;54262;44.642;-0.974;2023-11-21T01:51:19;2.72;;;1.50;;
67378;SDS011;54262;44.642;-0.974;2023-11-21T01:53:45;4.55;;;2.13;;
67378;SDS011;54262;44.642;-0.974;2023-11-21T01:56:14;4.30;;;1.35;;
67378;SDS011;54262;44.642;-0.974;2023-11-21T01:58:40;2.75;;;1.40;;
67378;SDS011;54262;44.642;-0.974;2023-11-21T02:01:07;8.07;;;1.98;;
67378;SDS011;54262;44.642;-0.974;2023-11-21T02:03:33;4.10;;;1.25;;
67378;SDS011;54262;44.642;-0.974;2023-11-21T02:06:00;5.80;;;1.77;;
67378;SDS011;54262;44.642;-0.974;2023-11-21T02:08:26;3.15;;;1.52;;
67378;SDS011;54262;44.642;-0.974;2023-11-21T02:10:52;4.25;;;1.90;;
67378;SDS011;54262;44.642;-0.974;2023-11-21T02:13:17;3.10;;;1.35;;
67378;SDS011;54262;44.642;-0.974;2023-11-21T02:15:45;4.18;;;1.42;;
67378;SDS011;54262;44.642;-0.974;2023-11-21T02:18:12;5.75;;;1.73;;
67378;SDS011;54262;44.642;-0.974;2023-11-21T02:20:40;4.35;;;1.58;;
67378;SDS011;54262;44.642;-0.974;2023-11-21T02:23:07;3.75;;;1.23;;
67378;SDS011;54262;44.642;-0.974;2023-11-21T02:25:33;2.70;;;1.38;;
67378;SDS011;54262;44.642;-0.974;2023-11-21T02:28:00;1.85;;;1.30;;
67378;SDS011;54262;44.642;-0.974;2023-11-21T02:30:26;3.47;;;1.33;;
67378;SDS011;54262;44.642;-0.974;2023-11-21T02:32:53;6.68;;;1.70;;
67378;SDS011;54262;44.642;-0.974;2023-11-21T02:35:19;3.95;;;1.50;;
67378;SDS011;54262;44.642;-0.974;2023-11-21T02:37:50;3.08;;;1.50;;
67378;SDS011;54262;44.642;-0.974;2023-11-21T02:40:16;4.10;;;1.73;;
67378;SDS011;54262;44.642;-0.974;2023-11-21T02:42:46;5.88;;;2.22;;
67378;SDS011;54262;44.642;-0.974;2023-11-21T02:45:13;7.90;;;1.90;;
67378;SDS011;54262;44.642;-0.974;2023-11-21T02:47:41;5.82;;;1.65;;
67378;SDS011;54262;44.642;-0.974;2023-11-21T02:50:08;3.50;;;1.20;;
67378;SDS011;54262;44.642;-0.974;2023-11-21T02:52:34;7.38;;;1.77;;
67378;SDS011;54262;44.642;-0.974;2023-11-21T02:55:03;7.32;;;1.42;;
67378;SDS011;54262;44.642;-0.974;2023-11-21T02:57:29;3.92;;;1.63;;
67378;SDS011;54262;44.642;-0.974;2023-11-21T02:59:55;11.02;;;2.83;;
67378;SDS011;54262;44.642;-0.974;2023-11-21T03:02:21;15.85;;;2.20;;
67378;SDS011;54262;44.642;-0.974;2023-11-21T03:04:47;14.35;;;2.00;;
67378;SDS011;54262;44.642;-0.974;2023-11-21T03:07:16;9.07;;;1.48;;
67378;SDS011;54262;44.642;-0.974;2023-11-21T03:09:44;6.57;;;1.40;;
67378;SDS011;54262;44.642;-0.974;2023-11-21T03:12:10;7.97;;;1.60;;
67378;SDS011;54262;44.642;-0.974;2023-11-21T03:14:37;4.80;;;1.48;;
67378;SDS011;54262;44.642;-0.974;2023-11-21T03:17:06;13.23;;;2.50;;
67378;SDS011;54262;44.642;-0.974;2023-11-21T03:19:32;9.98;;;1.50;;
67378;SDS011;54262;44.642;-0.974;2023-11-21T03:22:00;8.10;;;1.88;;
67378;SDS011;54262;44.642;-0.974;2023-11-21T03:24:25;7.45;;;1.88;;
67378;SDS011;54262;44.642;-0.974;2023-11-21T03:26:51;13.10;;;2.20;;
67378;SDS011;54262;44.642;-0.974;2023-11-21T03:29:17;13.73;;;1.73;;
67378;SDS011;54262;44.642;-0.974;2023-11-21T03:31:43;4.95;;;1.23;;
67378;SDS011;54262;44.642;-0.974;2023-11-21T03:34:11;13.93;;;2.58;;
67378;SDS011;54262;44.642;-0.974;2023-11-21T03:36:41;10.23;;;1.92;;
67378;SDS011;54262;44.642;-0.974;2023-11-21T03:39:07;5.97;;;1.00;;
67378;SDS011;54262;44.642;-0.974;2023-11-21T03:41:32;8.75;;;1.73;;
67378;SDS011;54262;44.642;-0.974;2023-11-21T03:43:59;9.80;;;1.63;;
67378;SDS011;54262;44.642;-0.974;2023-11-21T03:46:24;3.28;;;1.30;;
67378;SDS011;54262;44.642;-0.974;2023-11-21T03:48:50;7.90;;;2.00;;
67378;SDS011;54262;44.642;-0.974;2023-11-21T03:51:16;4.35;;;1.52;;
67378;SDS011;54262;44.642;-0.974;2023-11-21T03:53:42;9.20;;;1.38;;
67378;SDS011;54262;44.642;-0.974;2023-11-21T03:56:07;6.10;;;1.70;;
67378;SDS011;54262;44.642;-0.974;2023-11-21T03:58:33;7.47;;;1.48;;
67378;SDS011;54262;44.642;-0.974;2023-11-21T04:00:59;10.40;;;2.00;;
67378;SDS011;54262;44.642;-0.974;2023-11-21T04:03:25;13.35;;;2.75;;
67378;SDS011;54262;44.642;-0.974;2023-11-21T04:05:50;12.75;;;2.03;;
67378;SDS011;54262;44.642;-0.974;2023-11-21T04:08:16;5.68;;;1.63;;
67378;SDS011;54262;44.642;-0.974;2023-11-21T04:10:42;8.00;;;1.67;;
67378;SDS011;54262;44.642;-0.974;2023-11-21T04:13:07;3.13;;;1.58;;
67378;SDS011;54262;44.642;-0.974;2023-11-21T04:15:33;4.28;;;1.63;;
67378;SDS011;54262;44.642;-0.974;2023-11-21T04:18:01;7.47;;;1.42;;
67378;SDS011;54262;44.642;-0.974;2023-11-21T04:20:27;9.90;;;1.90;;
67378;SDS011;54262;44.642;-0.974;2023-11-21T04:22:55;2.75;;;1.30;;
67378;SDS011;54262;44.642;-0.974;2023-11-21T04:25:20;6.88;;;1.88;;
67378;SDS011;54262;44.642;-0.974;2023-11-21T04:27:48;6.35;;;1.35;;
67378;SDS011;54262;44.642;-0.974;2023-11-21T04:30:14;6.80;;;1.17;;
67378;SDS011;54262;44.642;-0.974;2023-11-21T04:32:40;6.13;;;1.60;;
67378;SDS011;54262;44.642;-0.974;2023-11-21T04:35:06;5.93;;;1.35;;
67378;SDS011;54262;44.642;-0.974;2023-11-21T04:37:33;9.98;;;2.00;;
67378;SDS011;54262;44.642;-0.974;2023-11-21T04:39:59;7.07;;;2.15;;
67378;SDS011;54262;44.642;-0.974;2023-11-21T04:42:25;6.65;;;1.77;;
67378;SDS011;54262;44.642;-0.974;2023-11-21T04:44:50;4.50;;;1.65;;
67378;SDS011;54262;44.642;-0.974;2023-11-21T04:47:17;4.35;;;1.38;;
67378;SDS011;54262;44.642;-0.974;2023-11-21T04:49:45;5.22;;;2.05;;
67378;SDS011;54262;44.642;-0.974;2023-11-21T04:52:14;4.05;;;1.45;;
67378;SDS011;54262;44.642;-0.974;2023-11-21T04:54:40;5.45;;;1.20;;
67378;SDS011;54262;44.642;-0.974;2023-11-21T04:57:06;14.48;;;1.58;;
67378;SDS011;54262;44.642;-0.974;2023-11-21T04:59:34;10.15;;;1.70;;
67378;SDS011;54262;44.642;-0.974;2023-11-21T05:02:00;7.72;;;2.42;;
67378;SDS011;54262;44.642;-0.974;2023-11-21T05:04:26;11.98;;;2.20;;
67378;SDS011;54262;44.642;-0.974;2023-11-21T05:06:52;8.73;;;1.98;;
67378;SDS011;54262;44.642;-0.974;2023-11-21T05:09:17;8.43;;;1.40;;
67378;SDS011;54262;44.642;-0.974;2023-11-21T05:11:43;7.45;;;1.60;;
67378;SDS011;54262;44.642;-0.974;2023-11-21T05:14:09;18.17;;;1.85;;
67378;SDS011;54262;44.642;-0.974;2023-11-21T05:16:35;7.07;;;1.88;;
67378;SDS011;54262;44.642;-0.974;2023-11-21T05:19:04;6.22;;;2.05;;
67378;SDS011;54262;44.642;-0.974;2023-11-21T05:21:30;6.57;;;2.30;;
67378;SDS011;54262;44.642;-0.974;2023-11-21T05:23:58;7.35;;;1.40;;
67378;SDS011;54262;44.642;-0.974;2023-11-21T05:26:24;9.10;;;1.70;;
67378;SDS011;54262;44.642;-0.974;2023-11-21T05:28:50;6.00;;;1.63;;
67378;SDS011;54262;44.642;-0.974;2023-11-21T05:31:16;5.07;;;1.83;;
67378;SDS011;54262;44.642;-0.974;2023-11-21T05:33:41;8.60;;;2.33;;
67378;SDS011;54262;44.642;-0.974;2023-11-21T05:36:07;12.13;;;1.77;;
67378;SDS011;54262;44.642;-0.974;2023-11-21T05:38:35;7.13;;;1.67;;
67378;SDS011;54262;44.642;-0.974;2023-11-21T05:41:01;8.00;;;2.72;;
67378;SDS011;54262;44.642;-0.974;2023-11-21T05:43:28;6.03;;;2.78;;
67378;SDS011;54262;44.642;-0.974;2023-11-21T05:45:55;4.78;;;1.98;;
67378;SDS011;54262;44.642;-0.974;2023-11-21T05:48:21;9.10;;;1.95;;
67378;SDS011;54262;44.642;-0.974;2023-11-21T05:50:47;7.20;;;1.85;;
67378;SDS011;54262;44.642;-0.974;2023-11-21T05:53:14;8.20;;;2.15;;
67378;SDS011;54262;44.642;-0.974;2023-11-21T05:55:40;10.40;;;2.25;;
67378;SDS011;54262;44.642;-0.974;2023-11-21T05:58:07;5.93;;;1.77;;
67378;SDS011;54262;44.642;-0.974;2023-11-21T06:00:33;11.32;;;1.95;;
67378;SDS011;54262;44.642;-0.974;2023-11-21T06:02:58;3.45;;;1.48;;
67378;SDS011;54262;44.642;-0.974;2023-11-21T06:05:25;10.90;;;1.75;;
67378;SDS011;54262;44.642;-0.974;2023-11-21T06:07:51;9.52;;;1.90;;
67378;SDS011;54262;44.642;-0.974;2023-11-21T06:10:22;2.92;;;1.73;;
67378;SDS011;54262;44.642;-0.974;2023-11-21T06:12:49;6.13;;;1.95;;
67378;SDS011;54262;44.642;-0.974;2023-11-21T06:15:14;9.27;;;1.88;;
67378;SDS011;54262;44.642;-0.974;2023-11-21T06:17:41;4.43;;;1.70;;
67378;SDS011;54262;44.642;-0.974;2023-11-21T06:20:10;5.25;;;1.20;;
67378;SDS011;54262;44.642;-0.974;2023-11-21T06:22:39;3.33;;;1.40;;
67378;SDS011;54262;44.642;-0.974;2023-11-21T06:25:09;5.85;;;1.30;;
67378;SDS011;54262;44.642;-0.974;2023-11-21T06:27:39;6.65;;;1.80;;
67378;SDS011;54262;44.642;-0.974;2023-11-21T06:30:06;17.52;;;1.92;;
67378;SDS011;54262;44.642;-0.974;2023-11-21T06:32:34;8.32;;;1.92;;
67378;SDS011;54262;44.642;-0.974;2023-11-21T06:35:01;4.78;;;1.90;;
67378;SDS011;54262;44.642;-0.974;2023-11-21T06:37:29;4.38;;;2.00;;
67378;SDS011;54262;44.642;-0.974;2023-11-21T06:39:55;11.32;;;3.00;;
67378;SDS011;54262;44.642;-0.974;2023-11-21T06:42:23;9.32;;;2.50;;
67378;SDS011;54262;44.642;-0.974;2023-11-21T06:44:49;3.35;;;1.80;;
67378;SDS011;54262;44.642;-0.974;2023-11-21T06:47:18;12.63;;;2.47;;
67378;SDS011;54262;44.642;-0.974;2023-11-21T06:49:49;8.20;;;2.75;;
67378;SDS011;54262;44.642;-0.974;2023-11-21T06:52:15;4.32;;;2.13;;
67378;SDS011;54262;44.642;-0.974;2023-11-21T06:54:41;2.97;;;1.55;;
67378;SDS011;54262;44.642;-0.974;2023-11-21T06:57:07;3.20;;;1.52;;
67378;SDS011;54262;44.642;-0.974;2023-11-21T06:59:33;8.18;;;1.73;;
67378;SDS011;54262;44.642;-0.974;2023-11-21T07:01:59;4.80;;;1.65;;
67378;SDS011;54262;44.642;-0.974;2023-11-21T07:04:25;6.80;;;2.47;;
67378;SDS011;54262;44.642;-0.974;2023-11-21T07:06:51;5.90;;;2.28;;
67378;SDS011;54262;44.642;-0.974;2023-11-21T07:09:18;4.88;;;2.40;;
67378;SDS011;54262;44.642;-0.974;2023-11-21T07:11:47;5.43;;;1.95;;
67378;SDS011;54262;44.642;-0.974;2023-11-21T07:14:13;2.72;;;1.70;;
67378;SDS011;54262;44.642;-0.974;2023-11-21T07:16:39;10.10;;;1.92;;
67378;SDS011;54262;44.642;-0.974;2023-11-21T07:19:05;2.58;;;1.35;;
67378;SDS011;54262;44.642;-0.974;2023-11-21T07:21:37;1.67;;;1.15;;
67378;SDS011;54262;44.642;-0.974;2023-11-21T07:24:03;2.30;;;1.23;;
67378;SDS011;54262;44.642;-0.974;2023-11-21T07:26:31;2.20;;;1.42;;
67378;SDS011;54262;44.642;-0.974;2023-11-21T07:29:02;8.65;;;1.35;;
67378;SDS011;54262;44.642;-0.974;2023-11-21T07:31:28;2.30;;;1.23;;
67378;SDS011;54262;44.642;-0.974;2023-11-21T07:33:54;4.53;;;1.27;;
67378;SDS011;54262;44.642;-0.974;2023-11-21T07:36:23;6.20;;;1.63;;
67378;SDS011;54262;44.642;-0.974;2023-11-21T07:38:49;5.78;;;1.73;;
67378;SDS011;54262;44.642;-0.974;2023-11-21T07:41:16;3.10;;;1.85;;
67378;SDS011;54262;44.642;-0.974;2023-11-21T07:43:43;13.52;;;2.70;;
67378;SDS011;54262;44.642;-0.974;2023-11-21T07:46:12;20.02;;;2.53;;
67378;SDS011;54262;44.642;-0.974;2023-11-21T07:48:41;8.50;;;2.15;;
67378;SDS011;54262;44.642;-0.974;2023-11-21T07:51:07;9.65;;;2.55;;
67378;SDS011;54262;44.642;-0.974;2023-11-21T07:53:34;7.45;;;2.40;;
67378;SDS011;54262;44.642;-0.974;2023-11-21T07:56:04;8.90;;;3.22;;
67378;SDS011;54262;44.642;-0.974;2023-11-21T07:58:34;6.82;;;2.38;;
67378;SDS011;54262;44.642;-0.974;2023-11-21T08:01:03;3.97;;;1.95;;
67378;SDS011;54262;44.642;-0.974;2023-11-21T08:03:29;8.88;;;2.25;;
67378;SDS011;54262;44.642;-0.974;2023-11-21T08:05:59;8.23;;;3.00;;
67378;SDS011;54262;44.642;-0.974;2023-11-21T08:08:25;12.52;;;2.22;;
67378;SDS011;54262;44.642;-0.974;2023-11-21T08:10:51;6.15;;;2.63;;
67378;SDS011;54262;44.642;-0.974;2023-11-21T08:13:24;9.38;;;3.70;;
67378;SDS011;54262;44.642;-0.974;2023-11-21T08:15:53;10.60;;;3.15;;
67378;SDS011;54262;44.642;-0.974;2023-11-21T08:18:22;13.10;;;3.22;;
67378;SDS011;54262;44.642;-0.974;2023-11-21T08:20:48;13.75;;;2.60;;
67378;SDS011;54262;44.642;-0.974;2023-11-21T08:23:19;7.43;;;2.42;;
67378;SDS011;54262;44.642;-0.974;2023-11-21T08:25:45;6.20;;;1.80;;
67378;SDS011;54262;44.642;-0.974;2023-11-21T08:28:14;3.50;;;1.75;;
67378;SDS011;54262;44.642;-0.974;2023-11-21T08:30:41;11.05;;;2.13;;
67378;SDS011;54262;44.642;-0.974;2023-11-21T08:33:07;9.63;;;2.70;;
67378;SDS011;54262;44.642;-0.974;2023-11-21T08:35:33;6.75;;;2.25;;
67378;SDS011;54262;44.642;-0.974;2023-11-21T08:38:01;5.70;;;2.17;;
67378;SDS011;54262;44.642;-0.974;2023-11-21T08:40:27;11.05;;;2.08;;
67378;SDS011;54262;44.642;-0.974;2023-11-21T08:42:58;7.25;;;1.95;;
67378;SDS011;54262;44.642;-0.974;2023-11-21T08:45:25;8.85;;;1.92;;
67378;SDS011;54262;44.642;-0.974;2023-11-21T08:47:53;5.13;;;2.15;;
67378;SDS011;54262;44.642;-0.974;2023-11-21T08:50:19;8.45;;;3.03;;
67378;SDS011;54262;44.642;-0.974;2023-11-21T08:52:46;8.77;;;2.15;;
67378;SDS011;54262;44.642;-0.974;2023-11-21T08:55:12;11.13;;;2.20;;
67378;SDS011;54262;44.642;-0.974;2023-11-21T08:57:38;5.32;;;2.50;;
67378;SDS011;54262;44.642;-0.974;2023-11-21T09:00:06;7.13;;;1.88;;
67378;SDS011;54262;44.642;-0.974;2023-11-21T09:02:44;10.90;;;1.95;;
67378;SDS011;54262;44.642;-0.974;2023-11-21T09:05:10;9.93;;;1.40;;
67378;SDS011;54262;44.642;-0.974;2023-11-21T09:07:38;3.28;;;1.40;;
67378;SDS011;54262;44.642;-0.974;2023-11-21T09:10:08;6.05;;;1.65;;
67378;SDS011;54262;44.642;-0.974;2023-11-21T09:12:34;5.43;;;1.45;;
67378;SDS011;54262;44.642;-0.974;2023-11-21T09:15:03;5.65;;;1.42;;
67378;SDS011;54262;44.642;-0.974;2023-11-21T09:17:32;10.15;;;3.92;;
67378;SDS011;54262;44.642;-0.974;2023-11-21T09:20:05;3.85;;;2.13;;
67378;SDS011;54262;44.642;-0.974;2023-11-21T09:22:35;2.42;;;1.30;;
67378;SDS011;54262;44.642;-0.974;2023-11-21T09:25:02;10.38;;;1.02;;
67378;SDS011;54262;44.642;-0.974;2023-11-21T09:27:32;5.38;;;1.42;;
67378;SDS011;54262;44.642;-0.974;2023-11-21T09:30:00;7.28;;;1.40;;
67378;SDS011;54262;44.642;-0.974;2023-11-21T09:32:26;5.75;;;1.23;;
67378;SDS011;54262;44.642;-0.974;2023-11-21T09:34:51;4.53;;;1.55;;
67378;SDS011;54262;44.642;-0.974;2023-11-21T09:37:18;5.85;;;1.58;;
67378;SDS011;54262;44.642;-0.974;2023-11-21T09:39:44;2.72;;;1.63;;
67378;SDS011;54262;44.642;-0.974;2023-11-21T09:42:15;2.38;;;1.00;;
67378;SDS011;54262;44.642;-0.974;2023-11-21T09:48:02;7.38;;;1.23;;
67378;SDS011;54262;44.642;-0.974;2023-11-21T09:50:28;4.90;;;1.35;;
67378;SDS011;54262;44.642;-0.974;2023-11-21T09:52:55;6.70;;;1.30;;
67378;SDS011;54262;44.642;-0.974;2023-11-21T09:55:26;6.28;;;1.13;;
67378;SDS011;54262;44.642;-0.974;2023-11-21T09:57:56;4.53;;;1.15;;
67378;SDS011;54262;44.642;-0.974;2023-11-21T10:00:23;2.38;;;1.25;;
67378;SDS011;54262;44.642;-0.974;2023-11-21T10:02:49;3.40;;;1.00;;
67378;SDS011;54262;44.642;-0.974;2023-11-21T10:05:16;5.53;;;1.52;;
67378;SDS011;54262;44.642;-0.974;2023-11-21T10:07:45;2.00;;;0.80;;
67378;SDS011;54262;44.642;-0.974;2023-11-21T10:10:11;9.25;;;1.35;;
67378;SDS011;54262;44.642;-0.974;2023-11-21T10:12:38;2.50;;;1.42;;
67378;SDS011;54262;44.642;-0.974;2023-11-21T10:15:07;3.38;;;1.13;;
67378;SDS011;54262;44.642;-0.974;2023-11-21T10:17:36;3.15;;;0.93;;
67378;SDS011;54262;44.642;-0.974;2023-11-21T10:20:08;6.65;;;1.70;;
67378;SDS011;54262;44.642;-0.974;2023-11-21T10:22:37;6.40;;;1.30;;
67378;SDS011;54262;44.642;-0.974;2023-11-21T10:25:06;3.90;;;1.08;;
67378;SDS011;54262;44.642;-0.974;2023-11-21T10:27:33;4.43;;;1.35;;
67378;SDS011;54262;44.642;-0.974;2023-11-21T10:30:07;3.20;;;1.17;;
67378;SDS011;54262;44.642;-0.974;2023-11-21T10:32:39;5.28;;;1.17;;
67378;SDS011;54262;44.642;-0.974;2023-11-21T10:35:06;5.45;;;1.00;;
67378;SDS011;54262;44.642;-0.974;2023-11-21T10:37:39;2.53;;;1.63;;
67378;SDS011;54262;44.642;-0.974;2023-11-21T10:40:06;1.48;;;1.10;;
67378;SDS011;54262;44.642;-0.974;2023-11-21T10:42:33;2.83;;;1.20;;
67378;SDS011;54262;44.642;-0.974;2023-11-21T10:44:58;9.25;;;1.33;;
67378;SDS011;54262;44.642;-0.974;2023-11-21T10:47:25;2.50;;;1.30;;
67378;SDS011;54262;44.642;-0.974;2023-11-21T10:49:52;4.25;;;0.80;;
67378;SDS011;54262;44.642;-0.974;2023-11-21T10:52:20;2.38;;;1.00;;
67378;SDS011;54262;44.642;-0.974;2023-11-21T10:54:46;1.88;;;1.10;;
67378;SDS011;54262;44.642;-0.974;2023-11-21T10:57:13;3.00;;;1.10;;
67378;SDS011;54262;44.642;-0.974;2023-11-21T10:59:42;5.60;;;1.45;;
67378;SDS011;54262;44.642;-0.974;2023-11-21T11:02:21;3.05;;;1.00;;
67378;SDS011;54262;44.642;-0.974;2023-11-21T11:04:57;2.38;;;0.90;;
67378;SDS011;54262;44.642;-0.974;2023-11-21T11:07:26;5.93;;;2.00;;
67378;SDS011;54262;44.642;-0.974;2023-11-21T11:09:53;3.60;;;1.30;;
67378;SDS011;54262;44.642;-0.974;2023-11-21T11:12:20;4.07;;;1.20;;
67378;SDS011;54262;44.642;-0.974;2023-11-21T11:14:46;4.43;;;0.90;;
67378;SDS011;54262;44.642;-0.974;2023-11-21T11:17:13;2.85;;;1.50;;
67378;SDS011;54262;44.642;-0.974;2023-11-21T11:19:39;1.60;;;0.90;;
67378;SDS011;54262;44.642;-0.974;2023-11-21T11:27:36;2.13;;;1.00;;
67378;SDS011;54262;44.642;-0.974;2023-11-21T11:30:28;3.35;;;0.98;;
67378;SDS011;54262;44.642;-0.974;2023-11-21T11:33:18;1.77;;;0.65;;
67378;SDS011;54262;44.642;-0.974;2023-11-21T11:36:02;5.07;;;0.77;;
67378;SDS011;54262;44.642;-0.974;2023-11-21T11:38:36;5.32;;;1.02;;
67378;SDS011;54262;44.642;-0.974;2023-11-21T11:41:02;3.90;;;0.82;;
67378;SDS011;54262;44.642;-0.974;2023-11-21T11:43:29;4.55;;;1.15;;
67378;SDS011;54262;44.642;-0.974;2023-11-21T11:45:58;2.90;;;0.80;;
67378;SDS011;54262;44.642;-0.974;2023-11-21T11:48:24;3.75;;;0.70;;
67378;SDS011;54262;44.642;-0.974;2023-11-21T11:53:35;2.80;;;0.93;;
67378;SDS011;54262;44.642;-0.974;2023-11-21T11:58:56;3.30;;;1.27;;
67378;SDS011;54262;44.642;-0.974;2023-11-21T12:01:23;12.55;;;1.13;;
67378;SDS011;54262;44.642;-0.974;2023-11-21T12:06:51;4.28;;;0.82;;
67378;SDS011;54262;44.642;-0.974;2023-11-21T12:09:18;1.90;;;0.63;;
67378;SDS011;54262;44.642;-0.974;2023-11-21T12:11:46;2.78;;;1.00;;
67378;SDS011;54262;44.642;-0.974;2023-11-21T12:14:16;1.17;;;0.45;;
67378;SDS011;54262;44.642;-0.974;2023-11-21T12:16:43;4.15;;;1.17;;
67378;SDS011;54262;44.642;-0.974;2023-11-21T12:19:11;2.35;;;1.05;;
67378;SDS011;54262;44.642;-0.974;2023-11-21T12:21:37;2.83;;;0.70;;
67378;SDS011;54262;44.642;-0.974;2023-11-21T12:24:08;1.77;;;0.77;;
67378;SDS011;54262;44.642;-0.974;2023-11-21T12:26:35;1.38;;;0.80;;
67378;SDS011;54262;44.642;-0.974;2023-11-21T12:29:09;1.55;;;0.80;;
67378;SDS011;54262;44.642;-0.974;2023-11-21T12:31:37;1.75;;;0.73;;
67378;SDS011;54262;44.642;-0.974;2023-11-21T12:34:03;1.38;;;0.70;;
67378;SDS011;54262;44.642;-0.974;2023-11-21T12:36:32;2.85;;;0.65;;
67378;SDS011;54262;44.642;-0.974;2023-11-21T12:38:59;1.20;;;0.70;;
67378;SDS011;54262;44.642;-0.974;2023-11-21T12:41:25;2.30;;;0.80;;
67378;SDS011;54262;44.642;-0.974;2023-11-21T12:43:51;2.40;;;1.52;;
67378;SDS011;54262;44.642;-0.974;2023-11-21T12:46:16;1.50;;;0.68;;
67378;SDS011;54262;44.642;-0.974;2023-11-21T12:48:42;4.60;;;1.05;;
67378;SDS011;54262;44.642;-0.974;2023-11-21T12:51:10;2.33;;;0.77;;
67378;SDS011;54262;44.642;-0.974;2023-11-21T12:53:37;2.13;;;0.82;;
67378;SDS011;54262;44.642;-0.974;2023-11-21T12:58:44;3.38;;;0.88;;
67378;SDS011;54262;44.642;-0.974;2023-11-21T13:01:15;4.00;;;0.73;;
67378;SDS011;54262;44.642;-0.974;2023-11-21T13:03:46;2.45;;;0.80;;
67378;SDS011;54262;44.642;-0.974;2023-11-21T13:06:14;5.07;;;1.17;;
67378;SDS011;54262;44.642;-0.974;2023-11-21T13:08:41;3.72;;;0.52;;
67378;SDS011;54262;44.642;-0.974;2023-11-21T13:11:09;4.68;;;0.70;;
67378;SDS011;54262;44.642;-0.974;2023-11-21T13:13:36;6.78;;;0.82;;
67378;SDS011;54262;44.642;-0.974;2023-11-21T13:16:03;2.50;;;0.70;;
67378;SDS011;54262;44.642;-0.974;2023-11-21T13:18:30;6.80;;;0.80;;
67378;SDS011;54262;44.642;-0.974;2023-11-21T13:20:59;3.45;;;1.10;;
67378;SDS011;54262;44.642;-0.974;2023-11-21T13:23:27;6.63;;;0.65;;
67378;SDS011;54262;44.642;-0.974;2023-11-21T13:25:54;3.53;;;1.23;;
67378;SDS011;54262;44.642;-0.974;2023-11-21T13:28:20;4.22;;;1.48;;
67378;SDS011;54262;44.642;-0.974;2023-11-21T13:30:49;1.88;;;0.70;;
67378;SDS011;54262;44.642;-0.974;2023-11-21T13:33:17;2.53;;;0.90;;
67378;SDS011;54262;44.642;-0.974;2023-11-21T13:35:46;1.42;;;0.90;;
67378;SDS011;54262;44.642;-0.974;2023-11-21T13:38:34;2.80;;;1.48;;
67378;SDS011;54262;44.642;-0.974;2023-11-21T13:41:00;1.48;;;0.80;;
67378;SDS011;54262;44.642;-0.974;2023-11-21T13:43:26;4.13;;;1.00;;
67378;SDS011;54262;44.642;-0.974;2023-11-21T13:45:53;2.30;;;0.77;;
67378;SDS011;54262;44.642;-0.974;2023-11-21T13:48:29;1.77;;;0.70;;
67378;SDS011;54262;44.642;-0.974;2023-11-21T13:51:05;6.97;;;1.05;;
67378;SDS011;54262;44.642;-0.974;2023-11-21T13:53:45;3.40;;;0.80;;
67378;SDS011;54262;44.642;-0.974;2023-11-21T13:56:14;4.80;;;1.30;;
67378;SDS011;54262;44.642;-0.974;2023-11-21T13:58:44;4.95;;;1.10;;
67378;SDS011;54262;44.642;-0.974;2023-11-21T14:01:16;5.97;;;1.83;;
67378;SDS011;54262;44.642;-0.974;2023-11-21T14:03:49;4.38;;;0.90;;
67378;SDS011;54262;44.642;-0.974;2023-11-21T14:06:21;3.50;;;1.13;;
67378;SDS011;54262;44.642;-0.974;2023-11-21T14:08:52;6.55;;;1.20;;
67378;SDS011;54262;44.642;-0.974;2023-11-21T14:11:21;6.60;;;1.20;;
67378;SDS011;54262;44.642;-0.974;2023-11-21T14:13:47;6.32;;;1.55;;
67378;SDS011;54262;44.642;-0.974;2023-11-21T14:16:14;3.50;;;1.00;;
67378;SDS011;54262;44.642;-0.974;2023-11-21T14:18:42;4.32;;;1.42;;
67378;SDS011;54262;44.642;-0.974;2023-11-21T14:21:20;2.33;;;1.20;;
67378;SDS011;54262;44.642;-0.974;2023-11-21T14:23:46;5.13;;;1.10;;
67378;SDS011;54262;44.642;-0.974;2023-11-21T14:26:13;5.22;;;1.20;;
67378;SDS011;54262;44.642;-0.974;2023-11-21T14:28:40;7.57;;;1.25;;
67378;SDS011;54262;44.642;-0.974;2023-11-21T14:31:08;4.10;;;1.92;;
67378;SDS011;54262;44.642;-0.974;2023-11-21T14:33:40;6.47;;;1.92;;
67378;SDS011;54262;44.642;-0.974;2023-11-21T14:36:06;5.03;;;2.85;;
67378;SDS011;54262;44.642;-0.974;2023-11-21T14:38:35;8.27;;;2.67;;
67378;SDS011;54262;44.642;-0.974;2023-11-21T14:41:02;10.55;;;3.00;;
67378;SDS011;54262;44.642;-0.974;2023-11-21T14:43:29;6.68;;;1.48;;
67378;SDS011;54262;44.642;-0.974;2023-11-21T14:45:59;5.35;;;1.80;;
67378;SDS011;54262;44.642;-0.974;2023-11-21T14:48:25;8.27;;;1.55;;
67378;SDS011;54262;44.642;-0.974;2023-11-21T14:51:07;7.57;;;1.30;;
67378;SDS011;54262;44.642;-0.974;2023-11-21T14:53:48;4.20;;;1.40;;
67378;SDS011;54262;44.642;-0.974;2023-11-21T14:56:21;2.55;;;1.15;;